createdAt,value
2022-12-20T00:01:59.715Z,1.60
2022-12-20T00:04:28.492Z,1.70
2022-12-20T00:06:57.129Z,1.60
2022-12-20T00:09:26.587Z,2.20
2022-12-20T00:11:55.311Z,1.60
2022-12-20T00:14:23.852Z,1.60
2022-12-20T00:16:52.654Z,1.70
2022-12-20T00:19:22.933Z,1.60
2022-12-20T00:21:51.736Z,1.70
2022-12-20T00:24:25.884Z,1.70
2022-12-20T00:26:54.995Z,1.70
2022-12-20T00:29:23.773Z,1.70
2022-12-20T00:31:52.677Z,1.60
2022-12-20T00:34:23.153Z,1.70
2022-12-20T00:36:51.740Z,1.60
2022-12-20T00:39:20.372Z,1.60
2022-12-20T00:41:49.144Z,1.60
2022-12-20T00:44:17.906Z,1.50
2022-12-20T00:46:46.754Z,1.50
2022-12-20T00:49:16.568Z,1.50
2022-12-20T00:51:46.965Z,1.40
2022-12-20T00:54:15.687Z,1.40
2022-12-20T00:56:44.564Z,1.40
2022-12-20T00:59:13.373Z,1.40
2022-12-20T01:01:42.126Z,1.40
2022-12-20T01:04:10.925Z,1.40
2022-12-20T01:06:39.855Z,1.30
2022-12-20T01:09:10.082Z,1.30
2022-12-20T01:11:40.016Z,1.40
2022-12-20T01:14:12.039Z,1.40
2022-12-20T01:16:43.710Z,1.40
2022-12-20T01:19:14.627Z,1.40
2022-12-20T01:21:45.527Z,1.40
2022-12-20T01:24:18.342Z,1.30
2022-12-20T01:26:47.823Z,1.40
2022-12-20T01:29:16.984Z,1.40
2022-12-20T01:31:47.276Z,1.30
2022-12-20T01:34:17.861Z,1.30
2022-12-20T01:36:46.981Z,1.40
2022-12-20T01:39:18.007Z,1.30
2022-12-20T01:41:47.890Z,1.40
2022-12-20T01:44:54.361Z,1.40
2022-12-20T01:47:23.994Z,1.50
2022-12-20T01:49:54.648Z,1.50
2022-12-20T01:52:29.335Z,1.50
2022-12-20T01:55:05.418Z,1.60
2022-12-20T01:57:41.123Z,1.50
2022-12-20T02:00:11.386Z,1.50
2022-12-20T02:02:43.977Z,1.50
2022-12-20T02:05:14.651Z,1.60
2022-12-20T02:07:49.881Z,1.60
2022-12-20T02:10:22.248Z,1.50
2022-12-20T02:12:58.218Z,1.50
2022-12-20T02:15:41.913Z,1.50
2022-12-20T02:18:23.564Z,1.60
2022-12-20T02:21:16.934Z,1.60
2022-12-20T02:24:08.861Z,1.60
2022-12-20T02:27:22.715Z,1.60
2022-12-20T02:30:07.439Z,1.70
2022-12-20T02:32:40.471Z,1.60
2022-12-20T02:35:11.700Z,1.60
2022-12-20T02:37:49.557Z,1.60
2022-12-20T02:40:23.219Z,1.60
2022-12-20T02:42:56.213Z,1.60
2022-12-20T02:45:34.115Z,1.60
2022-12-20T02:48:05.857Z,1.70
2022-12-20T02:50:40.867Z,1.80
2022-12-20T02:53:10.621Z,1.70
2022-12-20T02:55:46.119Z,1.80
2022-12-20T02:58:25.791Z,1.80
2022-12-20T03:01:04.466Z,1.80
2022-12-20T03:03:34.870Z,1.70
2022-12-20T03:06:03.779Z,1.80
2022-12-20T03:08:32.824Z,1.80
2022-12-20T03:11:02.626Z,2.00
2022-12-20T03:13:33.349Z,1.80
2022-12-20T03:16:09.284Z,1.70
2022-12-20T03:18:38.469Z,1.80
2022-12-20T03:21:07.529Z,1.80
2022-12-20T03:23:36.364Z,1.70
2022-12-20T03:26:05.940Z,1.60
2022-12-20T03:28:43.058Z,1.70
2022-12-20T03:31:16.524Z,1.70
2022-12-20T03:33:50.087Z,1.70
2022-12-20T03:36:23.539Z,1.60
2022-12-20T03:38:56.800Z,1.60
2022-12-20T03:41:27.768Z,1.50
2022-12-20T03:43:56.599Z,1.50
2022-12-20T03:46:28.123Z,1.50
2022-12-20T03:48:57.402Z,1.60
2022-12-20T03:51:26.261Z,1.60
2022-12-20T03:53:55.013Z,1.60
2022-12-20T03:56:28.840Z,2.20
2022-12-20T03:58:57.612Z,1.60
2022-12-20T04:01:30.381Z,1.60
2022-12-20T04:03:59.314Z,1.70
2022-12-20T04:06:29.272Z,1.70
2022-12-20T04:08:58.212Z,1.70
2022-12-20T04:11:32.508Z,1.80
2022-12-20T04:14:09.012Z,1.80
2022-12-20T04:16:39.946Z,2.20
2022-12-20T04:19:09.485Z,1.80
2022-12-20T04:21:42.933Z,1.80
2022-12-20T04:24:11.708Z,2.90
2022-12-20T04:26:59.212Z,1.80
2022-12-20T04:29:28.012Z,1.80
2022-12-20T04:31:58.602Z,1.90
2022-12-20T04:34:27.689Z,1.80
2022-12-20T04:36:56.249Z,1.90
2022-12-20T04:39:39.213Z,1.90
2022-12-20T04:42:21.229Z,1.90
2022-12-20T04:44:50.914Z,1.90
2022-12-20T04:47:27.171Z,2.00
2022-12-20T04:49:57.047Z,2.00
2022-12-20T04:52:47.672Z,2.00
2022-12-20T04:55:17.522Z,2.00
2022-12-20T04:57:46.665Z,1.90
2022-12-20T05:00:17.330Z,2.00
2022-12-20T05:02:52.206Z,2.00
2022-12-20T05:05:23.008Z,2.00
2022-12-20T05:07:55.161Z,2.00
2022-12-20T05:10:24.846Z,2.00
2022-12-20T05:12:55.420Z,2.00
2022-12-20T05:15:35.753Z,2.00
2022-12-20T05:18:07.867Z,1.90
2022-12-20T05:21:11.769Z,1.80
2022-12-20T05:23:57.974Z,1.90
2022-12-20T05:26:32.203Z,2.00
2022-12-20T05:29:02.652Z,2.00
2022-12-20T05:31:31.916Z,2.00
2022-12-20T05:34:02.743Z,1.90
2022-12-20T05:36:35.152Z,2.00
2022-12-20T05:39:06.522Z,2.00
2022-12-20T05:41:38.981Z,2.20
2022-12-20T05:44:08.468Z,2.00
2022-12-20T05:46:40.122Z,1.90
2022-12-20T05:49:15.301Z,1.90
2022-12-20T05:51:44.130Z,1.90
2022-12-20T05:54:25.684Z,1.90
2022-12-20T05:57:16.386Z,2.00
2022-12-20T05:59:45.385Z,2.00
2022-12-20T06:02:19.880Z,2.00
2022-12-20T06:04:53.739Z,2.30
2022-12-20T06:07:24.748Z,2.00
2022-12-20T06:09:58.191Z,2.00
2022-12-20T06:12:53.779Z,1.90
2022-12-20T06:15:23.320Z,1.90
2022-12-20T06:17:52.501Z,1.80
2022-12-20T06:20:22.959Z,1.80
2022-12-20T06:22:53.836Z,1.80
2022-12-20T06:25:23.188Z,1.70
2022-12-20T06:27:51.940Z,1.70
2022-12-20T06:30:20.963Z,1.70
2022-12-20T06:33:07.550Z,1.70
2022-12-20T06:35:37.929Z,1.70
2022-12-20T06:38:07.624Z,1.60
2022-12-20T06:40:37.647Z,1.60
2022-12-20T06:43:06.451Z,1.60
2022-12-20T06:45:41.201Z,1.70
2022-12-20T06:48:12.147Z,1.70
2022-12-20T06:50:43.035Z,1.60
2022-12-20T06:53:12.182Z,1.60
2022-12-20T06:55:41.639Z,1.60
2022-12-20T06:58:10.113Z,1.60
2022-12-20T07:00:39.864Z,1.60
2022-12-20T07:03:08.656Z,1.60
2022-12-20T07:05:37.255Z,1.70
2022-12-20T07:08:07.409Z,1.70
2022-12-20T07:10:37.247Z,1.70
2022-12-20T07:13:05.872Z,1.80
2022-12-20T07:15:35.174Z,1.80
2022-12-20T07:18:03.723Z,1.90
2022-12-20T07:20:32.274Z,1.90
2022-12-20T07:23:01.315Z,2.50
2022-12-20T07:25:31.179Z,1.90
2022-12-20T07:27:59.717Z,1.90
2022-12-20T07:30:28.199Z,1.90
2022-12-20T07:32:56.672Z,1.90
2022-12-20T07:35:25.407Z,1.90
2022-12-20T07:37:55.012Z,1.90
2022-12-20T07:40:24.491Z,1.90
2022-12-20T07:42:54.617Z,1.90
2022-12-20T07:45:23.183Z,1.90
2022-12-20T07:47:51.715Z,1.90
2022-12-20T07:50:20.236Z,3.80
2022-12-20T07:52:51.002Z,1.90
2022-12-20T07:55:19.795Z,1.80
2022-12-20T07:57:51.592Z,1.80
2022-12-20T08:00:21.893Z,1.90
2022-12-20T08:02:56.476Z,1.80
2022-12-20T08:05:26.163Z,2.70
2022-12-20T08:07:59.406Z,1.80
2022-12-20T08:10:29.217Z,1.80
2022-12-20T08:12:58.814Z,1.90
2022-12-20T08:15:30.530Z,2.00
2022-12-20T08:17:59.623Z,2.70
2022-12-20T08:20:29.040Z,2.10
2022-12-20T08:22:57.947Z,2.10
2022-12-20T08:25:26.883Z,2.60
2022-12-20T08:27:55.575Z,2.20
2022-12-20T08:30:24.916Z,2.20
2022-12-20T08:32:55.732Z,3.10
2022-12-20T08:35:24.905Z,2.30
2022-12-20T08:37:53.854Z,2.30
2022-12-20T08:40:22.748Z,2.60
2022-12-20T08:42:51.645Z,3.60
2022-12-20T08:45:20.522Z,2.20
2022-12-20T08:47:49.278Z,2.30
2022-12-20T08:50:20.467Z,2.50
2022-12-20T08:52:49.278Z,2.60
2022-12-20T08:55:20.946Z,2.70
2022-12-20T08:57:53.409Z,2.70
2022-12-20T09:00:22.501Z,2.80
2022-12-20T09:02:52.087Z,2.90
2022-12-20T09:05:22.599Z,3.10
2022-12-20T09:07:51.327Z,3.10
2022-12-20T09:10:20.229Z,3.00
2022-12-20T09:12:48.767Z,3.10
2022-12-20T09:15:17.744Z,3.10
2022-12-20T09:17:47.222Z,4.10
2022-12-20T09:20:16.229Z,3.90
2022-12-20T09:22:46.728Z,3.10
2022-12-20T09:25:15.653Z,3.10
2022-12-20T09:27:45.160Z,3.10
2022-12-20T09:30:14.694Z,3.10
2022-12-20T09:32:44.147Z,3.10
2022-12-20T09:35:17.815Z,3.20
2022-12-20T09:37:51.828Z,3.20
2022-12-20T09:40:24.136Z,3.20
2022-12-20T09:42:53.334Z,3.20
2022-12-20T09:45:28.785Z,3.30
2022-12-20T09:47:57.648Z,3.20
2022-12-20T09:50:39.300Z,3.20
2022-12-20T09:53:24.134Z,3.20
2022-12-20T09:55:58.007Z,3.40
2022-12-20T09:58:41.690Z,3.10
2022-12-20T10:01:24.394Z,3.30
2022-12-20T10:03:55.383Z,3.20
2022-12-20T10:06:34.585Z,3.30
2022-12-20T10:09:07.608Z,3.40
2022-12-20T10:11:57.132Z,3.40
2022-12-20T10:14:38.729Z,3.50
2022-12-20T10:17:15.596Z,3.60
2022-12-20T10:20:03.003Z,3.70
2022-12-20T10:22:38.957Z,3.70
2022-12-20T10:25:18.880Z,3.90
2022-12-20T10:27:49.821Z,3.80
2022-12-20T10:30:21.130Z,3.80
2022-12-20T10:32:52.520Z,3.90
2022-12-20T10:35:27.150Z,4.00
2022-12-20T10:38:09.555Z,3.90
2022-12-20T10:43:41.916Z,3.80
2022-12-20T10:46:12.200Z,3.90
2022-12-20T10:48:43.056Z,4.00
2022-12-20T10:51:17.827Z,4.00
2022-12-20T10:53:56.743Z,4.20
2022-12-20T10:56:29.092Z,4.30
2022-12-20T10:59:00.764Z,4.30
2022-12-20T11:01:32.601Z,4.40
2022-12-20T11:04:05.079Z,4.40
2022-12-20T11:06:43.791Z,4.50
2022-12-20T11:09:26.161Z,4.60
2022-12-20T11:12:06.435Z,4.70
2022-12-20T11:14:39.636Z,4.70
2022-12-20T11:17:26.600Z,4.80
2022-12-20T11:20:22.807Z,4.90
2022-12-20T11:23:00.574Z,4.90
2022-12-20T11:25:40.618Z,4.90
2022-12-20T11:28:27.804Z,4.80
2022-12-20T11:31:12.620Z,4.70
2022-12-20T11:34:04.892Z,4.60
2022-12-20T11:36:53.333Z,4.60
2022-12-20T11:39:33.549Z,4.50
2022-12-20T11:42:12.171Z,4.50
2022-12-20T11:45:03.375Z,4.50
2022-12-20T11:47:57.852Z,4.60
2022-12-20T11:50:52.831Z,4.50
2022-12-20T11:53:26.944Z,4.50
2022-12-20T11:55:59.606Z,4.60
2022-12-20T11:58:34.728Z,4.60
2022-12-20T12:01:13.004Z,4.70
2022-12-20T12:03:44.919Z,4.70
2022-12-20T12:06:21.888Z,4.70
2022-12-20T12:08:54.655Z,4.70
2022-12-20T12:14:31.643Z,4.60
2022-12-20T12:17:10.629Z,4.50
2022-12-20T12:19:44.677Z,4.60
2022-12-20T12:22:18.138Z,4.50
2022-12-20T12:24:53.080Z,4.50
2022-12-20T12:27:25.783Z,4.50
2022-12-20T12:29:56.489Z,4.50
2022-12-20T12:32:32.375Z,4.50
2022-12-20T12:35:17.245Z,4.50
2022-12-20T12:38:05.127Z,4.50
2022-12-20T12:40:59.311Z,4.60
2022-12-20T12:43:56.310Z,4.60
2022-12-20T12:46:30.494Z,4.70
2022-12-20T12:49:06.060Z,4.60
2022-12-20T12:51:38.855Z,4.60
2022-12-20T12:54:19.793Z,4.60
2022-12-20T12:56:49.896Z,4.60
2022-12-20T12:59:51.915Z,4.50
2022-12-20T13:02:50.276Z,4.50
2022-12-20T13:05:36.808Z,4.50
2022-12-20T13:08:16.475Z,4.60
2022-12-20T13:11:04.158Z,4.60
2022-12-20T13:13:34.735Z,4.60
2022-12-20T13:16:48.695Z,4.50
2022-12-20T13:19:19.803Z,4.60
2022-12-20T13:21:55.317Z,4.50
2022-12-20T13:24:37.884Z,4.40
2022-12-20T13:27:35.123Z,4.40
2022-12-20T13:30:25.821Z,4.30
2022-12-20T13:33:23.041Z,4.40
2022-12-20T13:36:26.820Z,4.40
2022-12-20T13:38:59.806Z,4.40
2022-12-20T13:41:41.267Z,4.30
2022-12-20T13:44:29.805Z,4.20
2022-12-20T13:47:03.233Z,4.10
2022-12-20T13:49:38.145Z,4.00
2022-12-20T13:52:27.146Z,3.90
2022-12-20T13:55:00.865Z,3.90
2022-12-20T13:57:33.805Z,3.90
2022-12-20T14:00:08.103Z,3.90
2022-12-20T14:02:42.466Z,3.90
2022-12-20T14:05:21.326Z,3.80
2022-12-20T14:07:57.723Z,3.70
2022-12-20T14:10:30.053Z,3.60
2022-12-20T14:12:59.991Z,3.60
2022-12-20T14:15:31.780Z,3.60
2022-12-20T14:18:07.565Z,3.50
2022-12-20T14:20:38.568Z,3.50
2022-12-20T14:23:12.979Z,3.50
2022-12-20T14:25:48.369Z,3.40
2022-12-20T14:28:31.043Z,3.40
2022-12-20T14:31:01.971Z,3.40
2022-12-20T14:33:35.157Z,3.40
2022-12-20T14:36:20.566Z,3.40
2022-12-20T14:38:51.492Z,3.40
2022-12-20T14:41:36.011Z,3.20
2022-12-20T14:44:17.269Z,3.10
2022-12-20T14:46:51.236Z,3.00
2022-12-20T14:49:25.072Z,3.00
2022-12-20T14:52:08.019Z,3.10
2022-12-20T14:57:41.421Z,3.00
2022-12-20T15:00:17.058Z,2.90
2022-12-20T15:02:52.091Z,3.00
2022-12-20T15:05:45.660Z,3.00
2022-12-20T15:08:17.423Z,2.90
2022-12-20T15:11:07.795Z,2.90
2022-12-20T15:13:40.300Z,3.00
2022-12-20T15:16:18.537Z,3.00
2022-12-20T15:18:47.943Z,3.00
2022-12-20T15:21:20.305Z,2.90
2022-12-20T15:23:51.651Z,2.90
2022-12-20T15:26:22.668Z,2.90
2022-12-20T15:28:53.495Z,3.00
2022-12-20T15:31:32.620Z,3.00
2022-12-20T15:34:02.758Z,3.00
2022-12-20T15:36:34.011Z,3.00
2022-12-20T15:39:18.670Z,2.90
2022-12-20T15:41:50.249Z,3.00
2022-12-20T15:44:23.545Z,3.00
2022-12-20T15:46:53.601Z,2.90
2022-12-20T15:49:24.695Z,3.00
2022-12-20T15:51:55.613Z,2.90
2022-12-20T15:54:27.664Z,2.90
2022-12-20T15:56:57.413Z,2.90
2022-12-20T16:02:23.422Z,2.90
2022-12-20T16:04:52.956Z,2.90
2022-12-20T16:07:21.828Z,2.90
2022-12-20T16:09:50.773Z,2.90
2022-12-20T16:12:22.777Z,2.90
2022-12-20T16:14:53.963Z,2.80
2022-12-20T16:17:24.065Z,2.80
2022-12-20T16:19:53.137Z,2.80
2022-12-20T16:22:23.698Z,2.80
2022-12-20T16:24:53.141Z,2.80
2022-12-20T16:27:21.924Z,2.80
2022-12-20T16:29:52.159Z,2.80
2022-12-20T16:32:22.887Z,2.80
2022-12-20T16:34:53.061Z,2.70
2022-12-20T16:37:22.529Z,2.70
2022-12-20T16:39:51.380Z,2.70
2022-12-20T16:42:22.826Z,2.60
2022-12-20T16:44:55.785Z,2.60
2022-12-20T16:47:24.794Z,2.70
2022-12-20T16:49:53.970Z,2.70
2022-12-20T16:52:23.922Z,2.80
2022-12-20T16:54:52.892Z,2.90
2022-12-20T16:57:22.632Z,2.70
2022-12-20T16:59:51.642Z,2.80
2022-12-20T17:02:27.478Z,2.70
2022-12-20T17:04:56.820Z,2.70
2022-12-20T17:07:26.148Z,2.80
2022-12-20T17:09:55.656Z,2.80
2022-12-20T17:12:25.059Z,2.80
2022-12-20T17:14:54.071Z,2.80
2022-12-20T17:17:24.799Z,2.90
2022-12-20T17:19:53.859Z,2.90
2022-12-20T17:22:22.987Z,3.00
2022-12-20T17:24:52.014Z,3.00
2022-12-20T17:27:21.041Z,3.00
2022-12-20T17:29:50.840Z,3.00
2022-12-20T17:32:22.749Z,3.00
2022-12-20T17:34:53.441Z,3.10
2022-12-20T17:37:22.906Z,3.00
2022-12-20T17:39:51.889Z,3.00
2022-12-20T17:42:24.285Z,3.00
2022-12-20T17:44:56.327Z,3.00
2022-12-20T17:47:25.285Z,3.00
2022-12-20T17:49:56.088Z,3.00
2022-12-20T17:52:25.905Z,3.00
2022-12-20T17:54:54.918Z,3.00
2022-12-20T17:57:23.982Z,3.10
2022-12-20T17:59:52.971Z,3.20
2022-12-20T18:02:23.477Z,3.20
2022-12-20T18:04:53.543Z,3.10
2022-12-20T18:07:24.292Z,3.10
2022-12-20T18:09:53.130Z,3.00
2022-12-20T18:12:21.876Z,3.10
2022-12-20T18:14:50.854Z,3.10
2022-12-20T18:17:19.926Z,3.10
2022-12-20T18:19:48.979Z,3.10
2022-12-20T18:22:17.842Z,3.10
2022-12-20T18:24:48.502Z,3.20
2022-12-20T18:27:17.583Z,3.20
2022-12-20T18:29:46.580Z,3.30
2022-12-20T18:32:15.421Z,3.30
2022-12-20T18:34:44.937Z,3.30
2022-12-20T18:37:13.833Z,3.30
2022-12-20T18:39:42.869Z,3.30
2022-12-20T18:42:13.513Z,3.20
2022-12-20T18:44:42.958Z,3.20
2022-12-20T18:47:11.835Z,3.20
2022-12-20T18:49:40.861Z,3.20
2022-12-20T18:52:09.873Z,3.20
2022-12-20T18:54:39.040Z,3.20
2022-12-20T18:57:08.092Z,3.20
2022-12-20T18:59:38.797Z,3.10
2022-12-20T19:02:08.716Z,3.10
2022-12-20T19:04:37.822Z,3.00
2022-12-20T19:07:06.895Z,3.10
2022-12-20T19:09:35.932Z,3.10
2022-12-20T19:12:05.595Z,3.10
2022-12-20T19:14:34.637Z,3.10
2022-12-20T19:17:05.304Z,3.10
2022-12-20T19:19:34.228Z,3.20
2022-12-20T19:22:03.222Z,3.10
2022-12-20T19:24:32.346Z,3.20
2022-12-20T19:27:01.369Z,3.20
2022-12-20T19:29:30.530Z,3.20
2022-12-20T19:31:59.496Z,3.10
2022-12-20T19:34:30.050Z,3.10
2022-12-20T19:36:59.191Z,3.10
2022-12-20T19:39:28.893Z,3.00
2022-12-20T19:42:23.175Z,3.00
2022-12-20T19:44:48.601Z,3.00
2022-12-20T19:47:17.615Z,3.00
2022-12-20T19:49:48.328Z,3.00
2022-12-20T19:52:28.998Z,3.10
2022-12-20T19:54:58.236Z,3.00
2022-12-20T19:57:27.213Z,3.00
2022-12-20T19:59:56.505Z,3.00
2022-12-20T20:02:26.055Z,3.10
2022-12-20T20:04:56.679Z,3.10
2022-12-20T20:07:25.686Z,3.10
2022-12-20T20:09:54.784Z,3.20
2022-12-20T20:12:23.866Z,3.10
2022-12-20T20:14:52.948Z,3.10
2022-12-20T20:17:22.042Z,3.10
2022-12-20T20:19:51.881Z,3.00
2022-12-20T20:22:23.304Z,3.00
2022-12-20T20:24:52.518Z,3.10
2022-12-20T20:27:21.551Z,3.00
2022-12-20T20:29:51.261Z,3.00
2022-12-20T20:32:20.238Z,3.00
2022-12-20T20:34:50.025Z,3.10
2022-12-20T20:37:19.131Z,3.00
2022-12-20T20:39:49.591Z,3.00
2022-12-20T20:42:23.202Z,3.10
2022-12-20T20:44:52.727Z,3.00
2022-12-20T20:47:21.953Z,3.00
2022-12-20T20:49:52.836Z,2.90
2022-12-20T20:52:22.121Z,2.90
2022-12-20T20:54:52.748Z,2.90
2022-12-20T20:57:21.787Z,2.90
2022-12-20T20:59:50.742Z,2.80
2022-12-20T21:02:22.150Z,2.80
2022-12-20T21:05:16.932Z,2.70
2022-12-20T21:07:41.208Z,2.70
2022-12-20T21:10:13.341Z,2.70
2022-12-20T21:12:42.331Z,2.70
2022-12-20T21:15:22.620Z,2.70
2022-12-20T21:17:52.521Z,2.70
2022-12-20T21:20:26.010Z,2.70
2022-12-20T21:22:57.434Z,2.50
2022-12-20T21:25:27.784Z,2.50
2022-12-20T21:27:57.451Z,2.50
2022-12-20T21:30:26.575Z,2.40
2022-12-20T21:32:55.428Z,2.40
2022-12-20T21:35:24.477Z,2.30
2022-12-20T21:37:53.459Z,2.30
2022-12-20T21:40:22.479Z,2.30
2022-12-20T21:42:53.244Z,2.30
2022-12-20T21:45:22.325Z,2.30
2022-12-20T21:47:51.180Z,2.30
2022-12-20T21:50:20.134Z,2.20
2022-12-20T21:52:49.145Z,2.30
2022-12-20T21:55:18.335Z,2.30
2022-12-20T21:57:48.316Z,2.30
2022-12-20T22:00:21.223Z,2.30
2022-12-20T22:02:50.438Z,2.40
2022-12-20T22:05:19.636Z,2.40
2022-12-20T22:07:48.792Z,2.40
2022-12-20T22:10:17.808Z,2.40
2022-12-20T22:12:46.958Z,2.40
2022-12-20T22:15:16.230Z,2.40
2022-12-20T22:17:46.965Z,2.40
2022-12-20T22:20:16.197Z,2.50
2022-12-20T22:22:45.189Z,2.50
2022-12-20T22:25:14.071Z,2.50
2022-12-20T22:27:43.040Z,2.50
2022-12-20T22:30:13.002Z,2.40
2022-12-20T22:32:42.304Z,2.50
2022-12-20T22:35:17.614Z,2.50
2022-12-20T22:37:49.812Z,2.50
2022-12-20T22:40:19.133Z,2.50
2022-12-20T22:42:48.120Z,2.60
2022-12-20T22:45:17.165Z,2.50
2022-12-20T22:47:46.065Z,2.50
2022-12-20T22:50:18.341Z,2.60
2022-12-20T22:52:47.387Z,2.50
2022-12-20T22:55:16.724Z,2.60
2022-12-20T22:57:45.872Z,2.60
2022-12-20T23:00:16.171Z,2.60
2022-12-20T23:02:45.450Z,2.70
2022-12-20T23:05:14.478Z,2.70
2022-12-20T23:07:45.245Z,2.60
2022-12-20T23:10:34.863Z,2.60
2022-12-20T23:13:20.779Z,2.60
2022-12-20T23:15:49.879Z,2.60
2022-12-20T23:18:18.865Z,2.70
2022-12-20T23:21:08.026Z,2.60
2022-12-20T23:23:38.900Z,2.70
2022-12-20T23:26:12.213Z,2.70
2022-12-20T23:28:41.567Z,2.80
2022-12-20T23:31:11.308Z,2.70
2022-12-20T23:33:40.354Z,2.80
2022-12-20T23:36:10.154Z,2.70
2022-12-20T23:38:41.050Z,2.70
2022-12-20T23:41:10.991Z,2.70
2022-12-20T23:43:40.061Z,2.70
2022-12-20T23:46:12.480Z,2.80
2022-12-20T23:48:42.027Z,2.80
2022-12-20T23:51:11.765Z,2.80
2022-12-20T23:53:42.471Z,2.70
2022-12-20T23:56:15.012Z,2.70
2022-12-20T23:58:44.818Z,2.70
